sensor_id;sensor_type;location;lat;lon;timestamp;P1;durP1;ratioP1;P2;durP2;ratioP2
14272;SDS011;7220;49.450;11.052;2024-01-27T00:00:33;0.98;;;0.95;;
14272;SDS011;7220;49.450;11.052;2024-01-27T00:04:35;2.40;;;1.30;;
14272;SDS011;7220;49.450;11.052;2024-01-27T00:08:36;1.13;;;1.02;;
14272;SDS011;7220;49.450;11.052;2024-01-27T00:12:37;1.15;;;1.05;;
14272;SDS011;7220;49.450;11.052;2024-01-27T00:16:37;1.30;;;1.08;;
14272;SDS011;7220;49.450;11.052;2024-01-27T00:20:38;2.65;;;0.90;;
14272;SDS011;7220;49.450;11.052;2024-01-27T00:24:38;1.17;;;1.17;;
14272;SDS011;7220;49.450;11.052;2024-01-27T00:28:38;0.98;;;0.98;;
14272;SDS011;7220;49.450;11.052;2024-01-27T00:32:39;1.92;;;1.27;;
14272;SDS011;7220;49.450;11.052;2024-01-27T00:36:39;1.35;;;1.25;;
14272;SDS011;7220;49.450;11.052;2024-01-27T00:40:39;0.93;;;0.93;;
14272;SDS011;7220;49.450;11.052;2024-01-27T00:44:40;2.65;;;0.98;;
14272;SDS011;7220;49.450;11.052;2024-01-27T00:48:40;0.98;;;0.98;;
14272;SDS011;7220;49.450;11.052;2024-01-27T00:52:40;1.38;;;1.27;;
14272;SDS011;7220;49.450;11.052;2024-01-27T00:56:41;2.17;;;1.10;;
14272;SDS011;7220;49.450;11.052;2024-01-27T01:00:41;0.93;;;0.93;;
14272;SDS011;7220;49.450;11.052;2024-01-27T01:04:42;2.05;;;1.05;;
14272;SDS011;7220;49.450;11.052;2024-01-27T01:08:42;0.98;;;0.98;;
14272;SDS011;7220;49.450;11.052;2024-01-27T01:12:42;3.30;;;0.90;;
14272;SDS011;7220;49.450;11.052;2024-01-27T01:16:43;1.00;;;1.00;;
14272;SDS011;7220;49.450;11.052;2024-01-27T01:20:43;4.75;;;1.40;;
14272;SDS011;7220;49.450;11.052;2024-01-27T01:24:43;1.02;;;1.02;;
14272;SDS011;7220;49.450;11.052;2024-01-27T01:28:44;1.48;;;0.90;;
14272;SDS011;7220;49.450;11.052;2024-01-27T01:32:44;0.90;;;0.90;;
14272;SDS011;7220;49.450;11.052;2024-01-27T01:36:44;0.73;;;0.73;;
14272;SDS011;7220;49.450;11.052;2024-01-27T01:40:45;2.95;;;1.15;;
14272;SDS011;7220;49.450;11.052;2024-01-27T01:44:46;2.90;;;1.30;;
14272;SDS011;7220;49.450;11.052;2024-01-27T01:48:46;2.03;;;1.02;;
14272;SDS011;7220;49.450;11.052;2024-01-27T01:52:47;0.63;;;0.63;;
14272;SDS011;7220;49.450;11.052;2024-01-27T01:56:49;1.20;;;1.10;;
14272;SDS011;7220;49.450;11.052;2024-01-27T02:00:49;3.15;;;1.25;;
14272;SDS011;7220;49.450;11.052;2024-01-27T02:04:49;0.73;;;0.73;;
14272;SDS011;7220;49.450;11.052;2024-01-27T02:08:50;3.17;;;1.00;;
14272;SDS011;7220;49.450;11.052;2024-01-27T02:12:51;1.00;;;1.00;;
14272;SDS011;7220;49.450;11.052;2024-01-27T02:16:51;1.98;;;1.33;;
14272;SDS011;7220;49.450;11.052;2024-01-27T02:20:51;0.90;;;0.90;;
14272;SDS011;7220;49.450;11.052;2024-01-27T02:24:52;1.27;;;1.10;;
14272;SDS011;7220;49.450;11.052;2024-01-27T02:28:52;1.95;;;1.27;;
14272;SDS011;7220;49.450;11.052;2024-01-27T02:32:53;2.88;;;1.45;;
14272;SDS011;7220;49.450;11.052;2024-01-27T02:36:53;1.58;;;1.30;;
14272;SDS011;7220;49.450;11.052;2024-01-27T02:40:54;2.03;;;1.30;;
14272;SDS011;7220;49.450;11.052;2024-01-27T02:44:54;1.75;;;1.05;;
14272;SDS011;7220;49.450;11.052;2024-01-27T02:48:54;0.73;;;0.73;;
14272;SDS011;7220;49.450;11.052;2024-01-27T02:52:55;1.73;;;1.25;;
14272;SDS011;7220;49.450;11.052;2024-01-27T02:56:55;1.88;;;1.00;;
14272;SDS011;7220;49.450;11.052;2024-01-27T03:00:55;2.17;;;1.45;;
14272;SDS011;7220;49.450;11.052;2024-01-27T03:04:56;1.30;;;1.20;;
14272;SDS011;7220;49.450;11.052;2024-01-27T03:08:56;4.30;;;1.15;;
14272;SDS011;7220;49.450;11.052;2024-01-27T03:12:57;1.33;;;1.23;;
14272;SDS011;7220;49.450;11.052;2024-01-27T03:16:58;3.55;;;1.33;;
14272;SDS011;7220;49.450;11.052;2024-01-27T03:20:58;1.35;;;1.02;;
14272;SDS011;7220;49.450;11.052;2024-01-27T03:24:59;1.25;;;1.15;;
14272;SDS011;7220;49.450;11.052;2024-01-27T03:28:59;1.17;;;1.15;;
14272;SDS011;7220;49.450;11.052;2024-01-27T03:33:00;1.27;;;1.20;;
14272;SDS011;7220;49.450;11.052;2024-01-27T03:37:00;0.82;;;0.82;;
14272;SDS011;7220;49.450;11.052;2024-01-27T03:41:00;2.13;;;1.30;;
14272;SDS011;7220;49.450;11.052;2024-01-27T03:45:01;2.38;;;1.40;;
14272;SDS011;7220;49.450;11.052;2024-01-27T03:49:01;1.58;;;1.10;;
14272;SDS011;7220;49.450;11.052;2024-01-27T03:53:02;1.27;;;1.20;;
14272;SDS011;7220;49.450;11.052;2024-01-27T03:57:02;1.10;;;1.10;;
14272;SDS011;7220;49.450;11.052;2024-01-27T04:01:02;1.88;;;1.00;;
14272;SDS011;7220;49.450;11.052;2024-01-27T04:05:03;1.23;;;1.20;;
14272;SDS011;7220;49.450;11.052;2024-01-27T04:09:05;1.10;;;1.05;;
14272;SDS011;7220;49.450;11.052;2024-01-27T04:13:09;2.75;;;1.50;;
14272;SDS011;7220;49.450;11.052;2024-01-27T04:17:09;3.83;;;1.30;;
14272;SDS011;7220;49.450;11.052;2024-01-27T04:21:09;1.15;;;1.05;;
14272;SDS011;7220;49.450;11.052;2024-01-27T04:25:10;1.23;;;1.23;;
14272;SDS011;7220;49.450;11.052;2024-01-27T04:29:10;1.60;;;1.50;;
14272;SDS011;7220;49.450;11.052;2024-01-27T04:33:14;1.52;;;1.33;;
14272;SDS011;7220;49.450;11.052;2024-01-27T04:37:15;3.53;;;1.92;;
14272;SDS011;7220;49.450;11.052;2024-01-27T04:41:15;2.08;;;1.85;;
14272;SDS011;7220;49.450;11.052;2024-01-27T04:45:16;1.50;;;1.40;;
14272;SDS011;7220;49.450;11.052;2024-01-27T04:49:16;1.33;;;1.10;;
14272;SDS011;7220;49.450;11.052;2024-01-27T04:53:16;1.85;;;1.35;;
14272;SDS011;7220;49.450;11.052;2024-01-27T04:57:17;1.70;;;1.60;;
14272;SDS011;7220;49.450;11.052;2024-01-27T05:01:17;1.30;;;1.20;;
14272;SDS011;7220;49.450;11.052;2024-01-27T05:05:18;1.67;;;1.40;;
14272;SDS011;7220;49.450;11.052;2024-01-27T05:09:18;1.95;;;1.30;;
14272;SDS011;7220;49.450;11.052;2024-01-27T05:13:18;1.50;;;1.30;;
14272;SDS011;7220;49.450;11.052;2024-01-27T05:17:19;3.17;;;2.22;;
14272;SDS011;7220;49.450;11.052;2024-01-27T05:21:19;2.65;;;1.73;;
14272;SDS011;7220;49.450;11.052;2024-01-27T05:25:20;2.00;;;1.80;;
14272;SDS011;7220;49.450;11.052;2024-01-27T05:29:20;1.52;;;1.42;;
14272;SDS011;7220;49.450;11.052;2024-01-27T05:33:21;2.80;;;1.70;;
14272;SDS011;7220;49.450;11.052;2024-01-27T05:37:21;2.45;;;1.42;;
14272;SDS011;7220;49.450;11.052;2024-01-27T05:41:25;1.63;;;1.52;;
14272;SDS011;7220;49.450;11.052;2024-01-27T05:45:26;4.05;;;1.73;;
14272;SDS011;7220;49.450;11.052;2024-01-27T05:49:26;3.00;;;1.83;;
14272;SDS011;7220;49.450;11.052;2024-01-27T05:53:27;1.42;;;1.25;;
14272;SDS011;7220;49.450;11.052;2024-01-27T05:57:28;2.08;;;1.73;;
14272;SDS011;7220;49.450;11.052;2024-01-27T06:01:28;1.60;;;1.50;;
14272;SDS011;7220;49.450;11.052;2024-01-27T06:05:28;3.53;;;1.33;;
14272;SDS011;7220;49.450;11.052;2024-01-27T06:09:29;2.15;;;1.70;;
14272;SDS011;7220;49.450;11.052;2024-01-27T06:13:29;1.50;;;1.40;;
14272;SDS011;7220;49.450;11.052;2024-01-27T06:17:30;1.60;;;1.50;;
14272;SDS011;7220;49.450;11.052;2024-01-27T06:21:30;2.55;;;2.10;;
14272;SDS011;7220;49.450;11.052;2024-01-27T06:25:30;1.83;;;1.73;;
14272;SDS011;7220;49.450;11.052;2024-01-27T06:29:31;1.65;;;1.35;;
14272;SDS011;7220;49.450;11.052;2024-01-27T06:33:31;4.05;;;1.70;;
14272;SDS011;7220;49.450;11.052;2024-01-27T06:37:32;1.33;;;1.23;;
14272;SDS011;7220;49.450;11.052;2024-01-27T06:41:32;3.45;;;1.88;;
14272;SDS011;7220;49.450;11.052;2024-01-27T06:45:33;3.03;;;1.83;;
14272;SDS011;7220;49.450;11.052;2024-01-27T06:49:33;1.52;;;1.42;;
14272;SDS011;7220;49.450;11.052;2024-01-27T06:53:33;1.70;;;1.60;;
14272;SDS011;7220;49.450;11.052;2024-01-27T06:57:34;1.45;;;1.33;;
14272;SDS011;7220;49.450;11.052;2024-01-27T07:01:34;3.40;;;1.88;;
14272;SDS011;7220;49.450;11.052;2024-01-27T07:05:34;3.83;;;1.83;;
14272;SDS011;7220;49.450;11.052;2024-01-27T07:09:38;4.90;;;3.40;;
14272;SDS011;7220;49.450;11.052;2024-01-27T07:13:39;2.90;;;2.40;;
14272;SDS011;7220;49.450;11.052;2024-01-27T07:17:41;3.10;;;2.35;;
14272;SDS011;7220;49.450;11.052;2024-01-27T07:21:41;4.82;;;3.65;;
14272;SDS011;7220;49.450;11.052;2024-01-27T07:25:42;3.95;;;2.17;;
14272;SDS011;7220;49.450;11.052;2024-01-27T07:29:42;1.65;;;1.55;;
14272;SDS011;7220;49.450;11.052;2024-01-27T07:33:42;3.08;;;1.60;;
14272;SDS011;7220;49.450;11.052;2024-01-27T07:37:43;2.70;;;1.67;;
14272;SDS011;7220;49.450;11.052;2024-01-27T07:41:43;2.70;;;2.00;;
14272;SDS011;7220;49.450;11.052;2024-01-27T07:45:43;2.88;;;2.13;;
14272;SDS011;7220;49.450;11.052;2024-01-27T07:49:44;1.90;;;1.80;;
14272;SDS011;7220;49.450;11.052;2024-01-27T07:53:45;2.88;;;2.30;;
14272;SDS011;7220;49.450;11.052;2024-01-27T07:57:45;6.05;;;2.40;;
14272;SDS011;7220;49.450;11.052;2024-01-27T08:01:45;2.22;;;2.00;;
14272;SDS011;7220;49.450;11.052;2024-01-27T08:05:46;1.90;;;1.73;;
14272;SDS011;7220;49.450;11.052;2024-01-27T08:09:46;2.08;;;1.88;;
14272;SDS011;7220;49.450;11.052;2024-01-27T08:13:46;3.08;;;1.67;;
14272;SDS011;7220;49.450;11.052;2024-01-27T08:17:47;4.63;;;1.92;;
14272;SDS011;7220;49.450;11.052;2024-01-27T08:21:47;2.92;;;1.90;;
14272;SDS011;7220;49.450;11.052;2024-01-27T08:25:48;6.80;;;2.40;;
14272;SDS011;7220;49.450;11.052;2024-01-27T08:29:52;3.17;;;2.00;;
14272;SDS011;7220;49.450;11.052;2024-01-27T08:33:52;2.42;;;2.00;;
14272;SDS011;7220;49.450;11.052;2024-01-27T08:37:52;2.33;;;1.73;;
14272;SDS011;7220;49.450;11.052;2024-01-27T08:41:53;2.50;;;2.30;;
14272;SDS011;7220;49.450;11.052;2024-01-27T08:45:53;1.58;;;1.48;;
14272;SDS011;7220;49.450;11.052;2024-01-27T08:49:54;1.50;;;1.40;;
14272;SDS011;7220;49.450;11.052;2024-01-27T08:53:55;5.03;;;2.03;;
14272;SDS011;7220;49.450;11.052;2024-01-27T08:57:56;1.63;;;1.50;;
14272;SDS011;7220;49.450;11.052;2024-01-27T09:01:56;1.50;;;1.40;;
14272;SDS011;7220;49.450;11.052;2024-01-27T09:05:57;5.20;;;3.80;;
14272;SDS011;7220;49.450;11.052;2024-01-27T09:09:57;2.45;;;1.80;;
14272;SDS011;7220;49.450;11.052;2024-01-27T09:13:58;1.90;;;1.75;;
14272;SDS011;7220;49.450;11.052;2024-01-27T09:17:58;2.05;;;1.77;;
14272;SDS011;7220;49.450;11.052;2024-01-27T09:21:59;4.55;;;1.83;;
14272;SDS011;7220;49.450;11.052;2024-01-27T09:25:59;3.20;;;1.95;;
14272;SDS011;7220;49.450;11.052;2024-01-27T09:29:59;1.83;;;1.67;;
14272;SDS011;7220;49.450;11.052;2024-01-27T09:34:00;2.70;;;1.90;;
14272;SDS011;7220;49.450;11.052;2024-01-27T09:38:00;1.92;;;1.70;;
14272;SDS011;7220;49.450;11.052;2024-01-27T09:42:01;2.85;;;1.75;;
14272;SDS011;7220;49.450;11.052;2024-01-27T09:46:06;2.42;;;1.80;;
14272;SDS011;7220;49.450;11.052;2024-01-27T09:50:07;3.47;;;1.42;;
14272;SDS011;7220;49.450;11.052;2024-01-27T09:54:11;1.75;;;1.25;;
14272;SDS011;7220;49.450;11.052;2024-01-27T09:58:11;1.67;;;1.55;;
14272;SDS011;7220;49.450;11.052;2024-01-27T10:02:12;1.45;;;1.35;;
14272;SDS011;7220;49.450;11.052;2024-01-27T10:06:15;3.42;;;1.40;;
14272;SDS011;7220;49.450;11.052;2024-01-27T10:10:15;4.25;;;2.08;;
14272;SDS011;7220;49.450;11.052;2024-01-27T10:14:16;2.67;;;1.77;;
14272;SDS011;7220;49.450;11.052;2024-01-27T10:18:16;4.40;;;1.67;;
14272;SDS011;7220;49.450;11.052;2024-01-27T10:22:16;4.28;;;1.70;;
14272;SDS011;7220;49.450;11.052;2024-01-27T10:26:17;2.05;;;1.77;;
14272;SDS011;7220;49.450;11.052;2024-01-27T10:30:17;2.53;;;1.50;;
14272;SDS011;7220;49.450;11.052;2024-01-27T10:34:21;2.38;;;1.55;;
14272;SDS011;7220;49.450;11.052;2024-01-27T10:38:22;3.90;;;1.52;;
14272;SDS011;7220;49.450;11.052;2024-01-27T10:42:32;1.95;;;1.48;;
14272;SDS011;7220;49.450;11.052;2024-01-27T10:46:35;2.65;;;1.55;;
14272;SDS011;7220;49.450;11.052;2024-01-27T10:50:36;3.17;;;1.85;;
14272;SDS011;7220;49.450;11.052;2024-01-27T10:54:38;1.83;;;1.33;;
14272;SDS011;7220;49.450;11.052;2024-01-27T10:58:41;2.80;;;1.77;;
14272;SDS011;7220;49.450;11.052;2024-01-27T11:02:43;2.10;;;1.67;;
14272;SDS011;7220;49.450;11.052;2024-01-27T11:06:44;2.40;;;1.13;;
14272;SDS011;7220;49.450;11.052;2024-01-27T11:10:49;1.58;;;1.48;;
14272;SDS011;7220;49.450;11.052;2024-01-27T11:14:51;2.03;;;1.08;;
14272;SDS011;7220;49.450;11.052;2024-01-27T11:18:52;1.58;;;1.38;;
14272;SDS011;7220;49.450;11.052;2024-01-27T11:22:53;2.88;;;1.77;;
14272;SDS011;7220;49.450;11.052;2024-01-27T11:27:04;4.03;;;1.70;;
14272;SDS011;7220;49.450;11.052;2024-01-27T11:31:06;2.63;;;2.20;;
14272;SDS011;7220;49.450;11.052;2024-01-27T11:35:07;3.85;;;1.80;;
14272;SDS011;7220;49.450;11.052;2024-01-27T11:39:22;4.45;;;2.03;;
14272;SDS011;7220;49.450;11.052;2024-01-27T11:43:23;3.35;;;1.25;;
14272;SDS011;7220;49.450;11.052;2024-01-27T11:47:23;3.40;;;1.52;;
14272;SDS011;7220;49.450;11.052;2024-01-27T11:51:26;3.58;;;2.08;;
14272;SDS011;7220;49.450;11.052;2024-01-27T11:55:26;5.22;;;1.75;;
14272;SDS011;7220;49.450;11.052;2024-01-27T11:59:26;1.30;;;1.20;;
14272;SDS011;7220;49.450;11.052;2024-01-27T12:03:27;3.45;;;2.03;;
14272;SDS011;7220;49.450;11.052;2024-01-27T12:07:28;1.90;;;1.20;;
14272;SDS011;7220;49.450;11.052;2024-01-27T12:11:29;3.03;;;2.55;;
14272;SDS011;7220;49.450;11.052;2024-01-27T12:15:31;5.43;;;2.58;;
14272;SDS011;7220;49.450;11.052;2024-01-27T12:19:31;3.30;;;2.22;;
14272;SDS011;7220;49.450;11.052;2024-01-27T12:23:32;6.30;;;2.35;;
14272;SDS011;7220;49.450;11.052;2024-01-27T12:27:32;1.60;;;1.30;;
14272;SDS011;7220;49.450;11.052;2024-01-27T12:31:32;2.10;;;1.30;;
14272;SDS011;7220;49.450;11.052;2024-01-27T12:35:33;3.83;;;1.23;;
14272;SDS011;7220;49.450;11.052;2024-01-27T12:39:34;3.88;;;2.50;;
14272;SDS011;7220;49.450;11.052;2024-01-27T12:43:34;4.28;;;2.17;;
14272;SDS011;7220;49.450;11.052;2024-01-27T12:47:34;1.80;;;1.33;;
14272;SDS011;7220;49.450;11.052;2024-01-27T12:51:35;2.38;;;1.10;;
14272;SDS011;7220;49.450;11.052;2024-01-27T12:55:35;4.93;;;1.55;;
14272;SDS011;7220;49.450;11.052;2024-01-27T12:59:38;4.05;;;1.30;;
14272;SDS011;7220;49.450;11.052;2024-01-27T13:03:38;1.83;;;1.00;;
14272;SDS011;7220;49.450;11.052;2024-01-27T13:07:39;3.08;;;1.33;;
14272;SDS011;7220;49.450;11.052;2024-01-27T13:11:39;3.83;;;1.30;;
14272;SDS011;7220;49.450;11.052;2024-01-27T13:15:40;1.92;;;1.00;;
14272;SDS011;7220;49.450;11.052;2024-01-27T13:19:40;4.18;;;1.48;;
14272;SDS011;7220;49.450;11.052;2024-01-27T13:23:41;1.30;;;1.20;;
14272;SDS011;7220;49.450;11.052;2024-01-27T13:27:41;1.48;;;1.02;;
14272;SDS011;7220;49.450;11.052;2024-01-27T13:31:42;2.15;;;1.00;;
14272;SDS011;7220;49.450;11.052;2024-01-27T13:35:43;2.00;;;1.20;;
14272;SDS011;7220;49.450;11.052;2024-01-27T13:39:46;3.40;;;1.60;;
14272;SDS011;7220;49.450;11.052;2024-01-27T13:43:47;2.03;;;1.15;;
14272;SDS011;7220;49.450;11.052;2024-01-27T13:47:47;1.95;;;1.30;;
14272;SDS011;7220;49.450;11.052;2024-01-27T13:51:47;2.83;;;1.50;;
14272;SDS011;7220;49.450;11.052;2024-01-27T13:55:48;4.78;;;1.30;;
14272;SDS011;7220;49.450;11.052;2024-01-27T13:59:48;1.77;;;1.40;;
14272;SDS011;7220;49.450;11.052;2024-01-27T14:03:49;3.28;;;1.42;;
14272;SDS011;7220;49.450;11.052;2024-01-27T14:07:49;1.77;;;1.13;;
14272;SDS011;7220;49.450;11.052;2024-01-27T14:11:50;1.60;;;1.40;;
14272;SDS011;7220;49.450;11.052;2024-01-27T14:15:50;3.47;;;1.45;;
14272;SDS011;7220;49.450;11.052;2024-01-27T14:19:51;3.08;;;1.45;;
14272;SDS011;7220;49.450;11.052;2024-01-27T14:23:53;2.17;;;1.55;;
14272;SDS011;7220;49.450;11.052;2024-01-27T14:28:00;3.78;;;1.48;;
14272;SDS011;7220;49.450;11.052;2024-01-27T14:32:01;6.70;;;2.65;;
14272;SDS011;7220;49.450;11.052;2024-01-27T14:36:03;1.58;;;1.40;;
14272;SDS011;7220;49.450;11.052;2024-01-27T14:40:04;4.15;;;1.35;;
14272;SDS011;7220;49.450;11.052;2024-01-27T14:44:05;2.70;;;1.80;;
14272;SDS011;7220;49.450;11.052;2024-01-27T14:48:06;1.45;;;1.20;;
14272;SDS011;7220;49.450;11.052;2024-01-27T14:52:06;1.20;;;1.10;;
14272;SDS011;7220;49.450;11.052;2024-01-27T14:56:07;0.80;;;0.80;;
14272;SDS011;7220;49.450;11.052;2024-01-27T15:00:07;1.40;;;1.30;;
14272;SDS011;7220;49.450;11.052;2024-01-27T15:04:08;2.78;;;1.30;;
14272;SDS011;7220;49.450;11.052;2024-01-27T15:08:08;1.67;;;1.30;;
14272;SDS011;7220;49.450;11.052;2024-01-27T15:12:09;3.83;;;1.33;;
14272;SDS011;7220;49.450;11.052;2024-01-27T15:16:09;6.13;;;1.45;;
14272;SDS011;7220;49.450;11.052;2024-01-27T15:20:10;4.25;;;1.85;;
14272;SDS011;7220;49.450;11.052;2024-01-27T15:24:12;1.58;;;1.48;;
14272;SDS011;7220;49.450;11.052;2024-01-27T15:28:12;4.45;;;1.92;;
14272;SDS011;7220;49.450;11.052;2024-01-27T15:32:12;2.08;;;1.70;;
14272;SDS011;7220;49.450;11.052;2024-01-27T15:36:17;3.10;;;1.48;;
14272;SDS011;7220;49.450;11.052;2024-01-27T15:40:17;2.17;;;1.20;;
14272;SDS011;7220;49.450;11.052;2024-01-27T15:44:17;1.20;;;1.10;;
14272;SDS011;7220;49.450;11.052;2024-01-27T15:48:18;4.18;;;1.58;;
14272;SDS011;7220;49.450;11.052;2024-01-27T15:52:18;5.03;;;1.48;;
14272;SDS011;7220;49.450;11.052;2024-01-27T15:56:19;2.30;;;1.00;;
14272;SDS011;7220;49.450;11.052;2024-01-27T16:00:19;2.53;;;1.08;;
14272;SDS011;7220;49.450;11.052;2024-01-27T16:04:20;2.63;;;1.38;;
14272;SDS011;7220;49.450;11.052;2024-01-27T16:08:21;2.60;;;1.58;;
14272;SDS011;7220;49.450;11.052;2024-01-27T16:12:21;3.28;;;1.60;;
14272;SDS011;7220;49.450;11.052;2024-01-27T16:16:22;1.90;;;1.23;;
14272;SDS011;7220;49.450;11.052;2024-01-27T16:20:24;2.47;;;1.27;;
14272;SDS011;7220;49.450;11.052;2024-01-27T16:24:24;1.90;;;1.52;;
14272;SDS011;7220;49.450;11.052;2024-01-27T16:28:25;3.50;;;1.70;;
14272;SDS011;7220;49.450;11.052;2024-01-27T16:32:28;4.03;;;1.90;;
14272;SDS011;7220;49.450;11.052;2024-01-27T16:36:28;3.10;;;1.92;;
14272;SDS011;7220;49.450;11.052;2024-01-27T16:40:29;2.63;;;2.05;;
14272;SDS011;7220;49.450;11.052;2024-01-27T16:44:29;9.55;;;1.95;;
14272;SDS011;7220;49.450;11.052;2024-01-27T16:48:29;6.78;;;1.90;;
14272;SDS011;7220;49.450;11.052;2024-01-27T16:52:31;2.58;;;1.80;;
14272;SDS011;7220;49.450;11.052;2024-01-27T16:56:31;2.20;;;1.75;;
14272;SDS011;7220;49.450;11.052;2024-01-27T17:00:31;3.65;;;2.03;;
14272;SDS011;7220;49.450;11.052;2024-01-27T17:04:32;2.10;;;1.90;;
14272;SDS011;7220;49.450;11.052;2024-01-27T17:08:32;2.42;;;1.85;;
14272;SDS011;7220;49.450;11.052;2024-01-27T17:12:33;4.03;;;2.03;;
14272;SDS011;7220;49.450;11.052;2024-01-27T17:16:33;5.40;;;2.45;;
14272;SDS011;7220;49.450;11.052;2024-01-27T17:20:33;3.38;;;2.25;;
14272;SDS011;7220;49.450;11.052;2024-01-27T17:24:34;6.20;;;2.35;;
14272;SDS011;7220;49.450;11.052;2024-01-27T17:28:35;3.40;;;2.33;;
14272;SDS011;7220;49.450;11.052;2024-01-27T17:32:35;2.83;;;2.33;;
14272;SDS011;7220;49.450;11.052;2024-01-27T17:36:37;6.18;;;2.33;;
14272;SDS011;7220;49.450;11.052;2024-01-27T17:40:37;5.40;;;2.85;;
14272;SDS011;7220;49.450;11.052;2024-01-27T17:44:38;4.65;;;2.75;;
14272;SDS011;7220;49.450;11.052;2024-01-27T17:48:38;6.30;;;2.97;;
14272;SDS011;7220;49.450;11.052;2024-01-27T17:52:39;5.63;;;3.20;;
14272;SDS011;7220;49.450;11.052;2024-01-27T17:56:40;7.85;;;3.50;;
14272;SDS011;7220;49.450;11.052;2024-01-27T18:00:40;5.25;;;3.28;;
14272;SDS011;7220;49.450;11.052;2024-01-27T18:04:40;6.40;;;3.45;;
14272;SDS011;7220;49.450;11.052;2024-01-27T18:08:41;6.50;;;3.80;;
14272;SDS011;7220;49.450;11.052;2024-01-27T18:12:42;10.05;;;3.72;;
14272;SDS011;7220;49.450;11.052;2024-01-27T18:16:42;5.43;;;3.83;;
14272;SDS011;7220;49.450;11.052;2024-01-27T18:20:44;8.00;;;3.40;;
14272;SDS011;7220;49.450;11.052;2024-01-27T18:24:44;8.27;;;3.88;;
14272;SDS011;7220;49.450;11.052;2024-01-27T18:28:44;5.38;;;4.18;;
14272;SDS011;7220;49.450;11.052;2024-01-27T18:32:45;9.35;;;5.35;;
14272;SDS011;7220;49.450;11.052;2024-01-27T18:36:45;19.00;;;6.43;;
14272;SDS011;7220;49.450;11.052;2024-01-27T18:40:45;9.48;;;5.95;;
14272;SDS011;7220;49.450;11.052;2024-01-27T18:44:46;8.82;;;5.38;;
14272;SDS011;7220;49.450;11.052;2024-01-27T18:48:46;7.35;;;4.95;;
14272;SDS011;7220;49.450;11.052;2024-01-27T18:52:49;11.73;;;5.38;;
14272;SDS011;7220;49.450;11.052;2024-01-27T18:56:53;8.50;;;4.88;;
14272;SDS011;7220;49.450;11.052;2024-01-27T19:00:55;8.18;;;4.85;;
14272;SDS011;7220;49.450;11.052;2024-01-27T19:04:55;9.43;;;6.03;;
14272;SDS011;7220;49.450;11.052;2024-01-27T19:08:57;14.55;;;5.95;;
14272;SDS011;7220;49.450;11.052;2024-01-27T19:12:59;16.92;;;7.68;;
14272;SDS011;7220;49.450;11.052;2024-01-27T19:17:00;8.75;;;4.88;;
14272;SDS011;7220;49.450;11.052;2024-01-27T19:21:02;7.50;;;4.63;;
14272;SDS011;7220;49.450;11.052;2024-01-27T19:25:02;7.82;;;5.18;;
14272;SDS011;7220;49.450;11.052;2024-01-27T19:29:03;7.07;;;4.70;;
14272;SDS011;7220;49.450;11.052;2024-01-27T19:33:04;9.10;;;5.85;;
14272;SDS011;7220;49.450;11.052;2024-01-27T19:37:04;9.55;;;6.40;;
14272;SDS011;7220;49.450;11.052;2024-01-27T19:41:04;11.55;;;6.35;;
14272;SDS011;7220;49.450;11.052;2024-01-27T19:45:08;14.88;;;5.63;;
14272;SDS011;7220;49.450;11.052;2024-01-27T19:49:09;7.32;;;4.72;;
14272;SDS011;7220;49.450;11.052;2024-01-27T19:53:09;9.10;;;4.85;;
14272;SDS011;7220;49.450;11.052;2024-01-27T19:57:10;7.50;;;4.32;;
14272;SDS011;7220;49.450;11.052;2024-01-27T20:01:10;6.88;;;4.13;;
14272;SDS011;7220;49.450;11.052;2024-01-27T20:05:11;11.85;;;6.43;;
14272;SDS011;7220;49.450;11.052;2024-01-27T20:09:11;10.43;;;6.15;;
14272;SDS011;7220;49.450;11.052;2024-01-27T20:13:12;13.98;;;6.68;;
14272;SDS011;7220;49.450;11.052;2024-01-27T20:17:12;13.10;;;7.38;;
14272;SDS011;7220;49.450;11.052;2024-01-27T20:21:13;10.43;;;5.88;;
14272;SDS011;7220;49.450;11.052;2024-01-27T20:25:13;9.70;;;5.65;;
14272;SDS011;7220;49.450;11.052;2024-01-27T20:29:13;9.50;;;5.13;;
14272;SDS011;7220;49.450;11.052;2024-01-27T20:33:14;10.68;;;5.32;;
14272;SDS011;7220;49.450;11.052;2024-01-27T20:37:15;11.02;;;4.68;;
14272;SDS011;7220;49.450;11.052;2024-01-27T20:41:15;7.05;;;4.60;;
14272;SDS011;7220;49.450;11.052;2024-01-27T20:45:15;8.70;;;4.68;;
14272;SDS011;7220;49.450;11.052;2024-01-27T20:49:16;7.03;;;4.20;;
14272;SDS011;7220;49.450;11.052;2024-01-27T20:53:16;9.70;;;4.43;;
14272;SDS011;7220;49.450;11.052;2024-01-27T20:57:16;9.57;;;5.10;;
14272;SDS011;7220;49.450;11.052;2024-01-27T21:01:18;7.72;;;4.53;;
14272;SDS011;7220;49.450;11.052;2024-01-27T21:05:19;5.05;;;3.45;;
14272;SDS011;7220;49.450;11.052;2024-01-27T21:09:19;5.45;;;3.63;;
14272;SDS011;7220;49.450;11.052;2024-01-27T21:13:20;6.40;;;3.00;;
14272;SDS011;7220;49.450;11.052;2024-01-27T21:17:20;8.23;;;3.58;;
14272;SDS011;7220;49.450;11.052;2024-01-27T21:21:20;5.38;;;3.35;;
14272;SDS011;7220;49.450;11.052;2024-01-27T21:25:21;7.80;;;3.25;;
14272;SDS011;7220;49.450;11.052;2024-01-27T21:29:21;4.53;;;3.72;;
14272;SDS011;7220;49.450;11.052;2024-01-27T21:33:21;4.57;;;3.55;;
14272;SDS011;7220;49.450;11.052;2024-01-27T21:37:22;6.10;;;3.88;;
14272;SDS011;7220;49.450;11.052;2024-01-27T21:41:23;4.00;;;3.47;;
14272;SDS011;7220;49.450;11.052;2024-01-27T21:45:23;5.13;;;3.50;;
14272;SDS011;7220;49.450;11.052;2024-01-27T21:49:24;3.75;;;3.33;;
14272;SDS011;7220;49.450;11.052;2024-01-27T21:53:24;5.78;;;3.30;;
14272;SDS011;7220;49.450;11.052;2024-01-27T21:57:24;4.60;;;4.03;;
14272;SDS011;7220;49.450;11.052;2024-01-27T22:01:25;4.57;;;3.58;;
14272;SDS011;7220;49.450;11.052;2024-01-27T22:05:26;3.67;;;3.30;;
14272;SDS011;7220;49.450;11.052;2024-01-27T22:09:26;5.97;;;3.67;;
14272;SDS011;7220;49.450;11.052;2024-01-27T22:13:27;5.63;;;3.45;;
14272;SDS011;7220;49.450;11.052;2024-01-27T22:17:27;8.82;;;4.35;;
14272;SDS011;7220;49.450;11.052;2024-01-27T22:21:28;5.80;;;3.63;;
14272;SDS011;7220;49.450;11.052;2024-01-27T22:25:28;5.05;;;3.33;;
14272;SDS011;7220;49.450;11.052;2024-01-27T22:29:28;4.20;;;3.22;;
14272;SDS011;7220;49.450;11.052;2024-01-27T22:33:30;5.55;;;3.28;;
14272;SDS011;7220;49.450;11.052;2024-01-27T22:37:31;4.47;;;3.63;;
14272;SDS011;7220;49.450;11.052;2024-01-27T22:41:31;7.22;;;3.85;;
14272;SDS011;7220;49.450;11.052;2024-01-27T22:45:31;5.57;;;3.72;;
14272;SDS011;7220;49.450;11.052;2024-01-27T22:49:32;6.00;;;3.83;;
14272;SDS011;7220;49.450;11.052;2024-01-27T22:53:33;5.60;;;3.03;;
14272;SDS011;7220;49.450;11.052;2024-01-27T22:57:33;4.43;;;3.53;;
14272;SDS011;7220;49.450;11.052;2024-01-27T23:01:34;6.53;;;4.28;;
14272;SDS011;7220;49.450;11.052;2024-01-27T23:05:35;7.18;;;3.08;;
14272;SDS011;7220;49.450;11.052;2024-01-27T23:09:36;5.80;;;3.25;;
14272;SDS011;7220;49.450;11.052;2024-01-27T23:13:36;5.38;;;3.13;;
14272;SDS011;7220;49.450;11.052;2024-01-27T23:17:37;5.80;;;3.10;;
14272;SDS011;7220;49.450;11.052;2024-01-27T23:21:38;3.90;;;2.80;;
14272;SDS011;7220;49.450;11.052;2024-01-27T23:25:40;4.88;;;3.33;;
14272;SDS011;7220;49.450;11.052;2024-01-27T23:29:44;5.03;;;2.83;;
